createdAt,value
2022-12-07T00:04:52.905Z,5.20
2022-12-07T00:09:55.092Z,6.15
2022-12-07T00:14:57.530Z,5.18
2022-12-07T00:20:00.052Z,5.97
2022-12-07T00:25:02.464Z,5.78
2022-12-07T00:30:05.221Z,5.97
2022-12-07T00:35:07.748Z,5.50
2022-12-07T00:40:10.365Z,5.18
2022-12-07T00:45:12.635Z,5.20
2022-12-07T00:50:14.932Z,5.47
2022-12-07T00:55:17.239Z,5.65
2022-12-07T01:00:19.617Z,5.72
2022-12-07T01:05:21.985Z,5.90
2022-12-07T01:10:24.350Z,6.10
2022-12-07T01:15:27.401Z,6.35
2022-12-07T01:20:29.648Z,5.60
2022-12-07T01:25:32.401Z,6.70
2022-12-07T01:30:34.665Z,6.70
2022-12-07T01:35:36.940Z,6.88
2022-12-07T01:40:39.151Z,6.80
2022-12-07T01:45:42.886Z,6.82
2022-12-07T01:50:46.800Z,6.97
2022-12-07T01:55:52.967Z,6.88
2022-12-07T02:00:55.225Z,7.10
2022-12-07T02:06:00.364Z,6.70
2022-12-07T02:11:04.645Z,6.60
2022-12-07T02:31:59.984Z,8.38
2022-12-07T02:37:10.736Z,8.48
2022-12-07T02:42:21.622Z,8.75
2022-12-07T02:47:26.135Z,9.27
2022-12-07T02:52:28.309Z,9.20
2022-12-07T03:03:06.712Z,10.35
2022-12-07T03:13:43.505Z,9.63
2022-12-07T03:18:59.382Z,9.60
2022-12-07T03:24:08.487Z,9.63
2022-12-07T03:29:17.738Z,9.98
2022-12-07T03:39:42.147Z,9.38
2022-12-07T03:44:44.755Z,10.23
2022-12-07T04:00:34.510Z,9.23
2022-12-07T04:05:36.937Z,9.82
2022-12-07T04:10:39.459Z,8.70
2022-12-07T04:15:41.721Z,8.55
2022-12-07T04:20:44.092Z,9.35
2022-12-07T04:25:49.577Z,9.27
2022-12-07T04:30:51.853Z,10.32
2022-12-07T04:35:54.144Z,10.65
2022-12-07T04:40:56.403Z,10.05
2022-12-07T04:45:58.636Z,10.40
2022-12-07T04:51:00.844Z,10.27
2022-12-07T04:56:03.196Z,10.77
2022-12-07T05:01:05.501Z,11.00
2022-12-07T05:06:13.179Z,10.43
2022-12-07T05:11:36.312Z,10.82
2022-12-07T05:16:39.577Z,10.40
2022-12-07T05:21:41.945Z,11.63
2022-12-07T05:26:44.743Z,12.68
2022-12-07T05:31:47.276Z,13.02
2022-12-07T05:36:50.277Z,12.57
2022-12-07T05:42:12.389Z,11.90
2022-12-07T05:47:16.085Z,12.63
2022-12-07T05:52:18.364Z,12.63
2022-12-07T05:57:20.865Z,13.48
2022-12-07T06:02:23.198Z,13.38
2022-12-07T06:07:25.535Z,13.90
2022-12-07T06:12:35.183Z,13.25
2022-12-07T06:17:37.951Z,13.88
2022-12-07T06:22:40.157Z,19.75
2022-12-07T06:27:42.480Z,18.83
2022-12-07T06:32:44.697Z,21.15
2022-12-07T06:37:46.927Z,54.78
2022-12-07T06:42:49.217Z,19.63
2022-12-07T06:47:51.851Z,17.85
2022-12-07T06:52:54.251Z,16.65
2022-12-07T06:57:56.485Z,16.52
2022-12-07T07:02:58.749Z,15.75
2022-12-07T07:13:23.774Z,19.75
2022-12-07T07:18:26.115Z,15.52
2022-12-07T07:23:28.575Z,15.90
2022-12-07T07:28:30.824Z,15.38
2022-12-07T07:33:33.203Z,15.75
2022-12-07T07:38:35.508Z,16.65
2022-12-07T07:43:37.800Z,16.73
2022-12-07T07:48:40.024Z,16.00
2022-12-07T07:53:42.416Z,16.00
2022-12-07T07:58:44.694Z,13.02
2022-12-07T08:03:48.610Z,12.70
2022-12-07T08:08:50.862Z,13.00
2022-12-07T08:13:53.105Z,12.55
2022-12-07T08:18:55.432Z,13.93
2022-12-07T08:23:58.797Z,13.23
2022-12-07T08:29:01.142Z,13.07
2022-12-07T08:34:03.794Z,13.82
2022-12-07T08:44:29.221Z,14.00
2022-12-07T08:49:37.588Z,13.18
2022-12-07T08:54:41.289Z,12.70
2022-12-07T08:59:43.579Z,13.55
2022-12-07T09:04:45.774Z,14.02
2022-12-07T09:09:47.991Z,13.07
2022-12-07T09:14:50.186Z,13.07
2022-12-07T09:19:52.518Z,13.07
2022-12-07T09:24:54.900Z,13.55
2022-12-07T09:29:57.148Z,13.40
2022-12-07T09:34:59.489Z,13.15
2022-12-07T09:40:02.286Z,13.75
2022-12-07T09:45:08.665Z,14.00
2022-12-07T09:50:18.457Z,13.65
2022-12-07T09:55:25.996Z,13.43
2022-12-07T10:00:29.448Z,15.35
2022-12-07T10:05:43.979Z,13.43
2022-12-07T10:10:51.929Z,13.80
2022-12-07T10:16:02.137Z,13.45
2022-12-07T10:31:46.172Z,13.02
2022-12-07T10:36:48.599Z,13.88
2022-12-07T11:03:22.984Z,14.25
2022-12-07T11:08:54.269Z,14.18
2022-12-07T11:30:13.728Z,13.07
2022-12-07T11:45:43.994Z,14.25
2022-12-07T11:56:01.123Z,12.18
2022-12-07T12:06:25.146Z,13.23
2022-12-07T12:27:49.840Z,14.38
2022-12-07T12:32:52.930Z,15.15
2022-12-07T12:37:56.323Z,14.85
2022-12-07T12:42:59.148Z,15.07
2022-12-07T12:48:03.012Z,17.92
2022-12-07T12:53:20.577Z,15.85
2022-12-07T12:58:32.598Z,15.75
2022-12-07T13:03:35.347Z,15.88
2022-12-07T13:08:42.707Z,16.55
2022-12-07T13:13:45.033Z,15.13
2022-12-07T13:18:47.352Z,15.30
2022-12-07T13:29:17.554Z,14.45
2022-12-07T13:39:48.311Z,15.85
2022-12-07T13:44:50.564Z,15.55
2022-12-07T13:49:55.536Z,15.35
2022-12-07T13:55:01.537Z,15.88
2022-12-07T14:00:06.985Z,16.20
2022-12-07T14:05:27.326Z,14.50
2022-12-07T14:10:34.184Z,15.85
2022-12-07T14:15:36.658Z,15.02
2022-12-07T14:20:41.358Z,14.57
2022-12-07T14:25:53.480Z,15.88
2022-12-07T14:30:55.773Z,16.23
2022-12-07T14:35:59.372Z,15.52
2022-12-07T14:41:21.926Z,15.45
2022-12-07T14:46:24.524Z,16.02
2022-12-07T14:56:50.539Z,15.85
2022-12-07T15:01:52.754Z,16.23
2022-12-07T15:06:58.702Z,15.98
2022-12-07T15:12:00.966Z,16.10
2022-12-07T15:17:16.635Z,15.90
2022-12-07T15:22:25.673Z,15.73
2022-12-07T15:27:27.940Z,16.13
2022-12-07T15:32:30.303Z,15.65
2022-12-07T15:37:32.597Z,15.75
2022-12-07T15:42:34.909Z,15.95
2022-12-07T15:48:10.333Z,16.83
2022-12-07T15:53:01.804Z,16.63
2022-12-07T15:58:04.012Z,14.55
2022-12-07T16:03:06.315Z,15.27
2022-12-07T16:08:08.669Z,14.77
2022-12-07T16:13:11.921Z,16.08
2022-12-07T16:18:14.257Z,16.13
2022-12-07T16:23:17.035Z,17.10
2022-12-07T16:28:19.292Z,16.45
2022-12-07T16:33:21.603Z,14.88
2022-12-07T16:38:23.808Z,14.27
2022-12-07T16:43:26.100Z,15.25
2022-12-07T16:48:28.712Z,15.57
2022-12-07T16:53:30.968Z,15.05
2022-12-07T16:58:34.018Z,15.73
2022-12-07T17:03:36.817Z,15.60
2022-12-07T17:08:39.018Z,15.85
2022-12-07T17:14:01.917Z,15.77
2022-12-07T17:19:06.729Z,15.63
2022-12-07T17:24:12.771Z,16.77
2022-12-07T17:29:16.270Z,16.58
2022-12-07T17:34:18.531Z,17.73
2022-12-07T17:39:20.808Z,16.63
2022-12-07T17:44:23.761Z,17.80
2022-12-07T17:49:27.291Z,16.98
2022-12-07T17:54:30.247Z,16.08
2022-12-07T17:59:32.597Z,15.73
2022-12-07T18:04:34.831Z,13.95
2022-12-07T18:09:37.280Z,13.13
2022-12-07T18:14:39.549Z,13.60
2022-12-07T18:19:42.873Z,13.32
2022-12-07T18:24:45.234Z,13.90
2022-12-07T18:29:47.611Z,14.75
2022-12-07T18:34:49.949Z,13.23
2022-12-07T18:39:52.625Z,12.50
2022-12-07T18:44:54.874Z,12.13
2022-12-07T18:49:57.484Z,11.90
2022-12-07T18:55:02.064Z,11.43
2022-12-07T19:00:05.621Z,11.82
2022-12-07T19:05:07.885Z,12.13
2022-12-07T19:10:10.864Z,10.15
2022-12-07T19:15:14.931Z,11.45
2022-12-07T19:20:17.148Z,18.13
2022-12-07T19:25:19.390Z,12.23
2022-12-07T19:30:22.525Z,12.65
2022-12-07T19:35:24.806Z,20.02
2022-12-07T19:46:14.842Z,12.05
2022-12-07T19:51:17.397Z,12.57
2022-12-07T19:56:21.401Z,13.25
2022-12-07T20:01:23.848Z,13.98
2022-12-07T20:06:26.830Z,13.70
2022-12-07T20:11:48.983Z,12.80
2022-12-07T20:16:52.080Z,14.35
2022-12-07T20:21:54.564Z,12.05
2022-12-07T20:26:56.943Z,14.90
2022-12-07T20:31:59.284Z,14.35
2022-12-07T20:38:10.124Z,13.13
2022-12-07T20:43:42.517Z,21.88
2022-12-07T20:48:45.294Z,12.27
2022-12-07T20:53:47.582Z,14.02
2022-12-07T20:58:50.295Z,14.63
2022-12-07T21:04:01.484Z,12.90
2022-12-07T21:09:03.983Z,15.85
2022-12-07T21:14:06.453Z,13.70
2022-12-07T21:19:08.712Z,17.20
2022-12-07T21:24:12.002Z,17.80
2022-12-07T21:29:14.499Z,18.27
2022-12-07T21:34:16.757Z,18.60
2022-12-07T21:39:19.045Z,19.45
2022-12-07T21:44:21.297Z,21.77
2022-12-07T21:49:23.797Z,22.25
2022-12-07T21:54:26.388Z,19.90
2022-12-07T21:59:28.958Z,19.02
2022-12-07T22:04:31.440Z,20.33
2022-12-07T22:09:33.717Z,20.77
2022-12-07T22:14:55.929Z,20.88
2022-12-07T22:20:00.599Z,20.63
2022-12-07T22:25:03.356Z,18.55
2022-12-07T22:30:09.048Z,20.30
2022-12-07T22:35:11.242Z,19.08
2022-12-07T22:40:23.630Z,20.17
2022-12-07T22:45:25.889Z,20.33
2022-12-07T22:50:28.106Z,20.90
2022-12-07T22:55:30.359Z,19.70
2022-12-07T23:00:32.819Z,19.58
2022-12-07T23:05:35.153Z,19.13
2022-12-07T23:10:41.460Z,20.08
2022-12-07T23:15:45.913Z,18.38
2022-12-07T23:20:48.769Z,19.85
2022-12-07T23:25:51.051Z,19.02
2022-12-07T23:30:53.358Z,18.95
2022-12-07T23:35:55.568Z,18.33
2022-12-07T23:40:57.765Z,18.20
2022-12-07T23:46:00.074Z,17.90
2022-12-07T23:51:02.343Z,18.48
2022-12-07T23:56:05.503Z,18.67
